sensor_id;sensor_type;location;lat;lon;timestamp;P1;durP1;ratioP1;P2;durP2;ratioP2
34505;SDS011;20748;42.632;23.198;2023-09-12T00:00:03;4.60;;;1.95;;
34505;SDS011;20748;42.632;23.198;2023-09-12T00:02:43;2.90;;;1.58;;
34505;SDS011;20748;42.632;23.198;2023-09-12T00:11:06;3.92;;;1.42;;
34505;SDS011;20748;42.632;23.198;2023-09-12T00:13:42;5.55;;;1.65;;
34505;SDS011;20748;42.632;23.198;2023-09-12T00:16:15;3.33;;;1.90;;
34505;SDS011;20748;42.632;23.198;2023-09-12T00:18:48;4.22;;;1.73;;
34505;SDS011;20748;42.632;23.198;2023-09-12T00:21:20;4.22;;;2.10;;
34505;SDS011;20748;42.632;23.198;2023-09-12T00:23:52;3.47;;;1.55;;
34505;SDS011;20748;42.632;23.198;2023-09-12T00:26:26;3.65;;;1.77;;
34505;SDS011;20748;42.632;23.198;2023-09-12T00:28:59;2.55;;;1.33;;
34505;SDS011;20748;42.632;23.198;2023-09-12T00:31:43;1.88;;;1.13;;
34505;SDS011;20748;42.632;23.198;2023-09-12T00:34:16;3.00;;;1.33;;
34505;SDS011;20748;42.632;23.198;2023-09-12T00:36:48;2.75;;;1.45;;
34505;SDS011;20748;42.632;23.198;2023-09-12T00:39:21;3.15;;;1.80;;
34505;SDS011;20748;42.632;23.198;2023-09-12T00:41:53;5.03;;;1.75;;
34505;SDS011;20748;42.632;23.198;2023-09-12T00:44:25;3.42;;;1.88;;
34505;SDS011;20748;42.632;23.198;2023-09-12T00:46:58;3.75;;;1.48;;
34505;SDS011;20748;42.632;23.198;2023-09-12T00:49:33;4.20;;;1.83;;
34505;SDS011;20748;42.632;23.198;2023-09-12T00:57:42;3.92;;;1.70;;
34505;SDS011;20748;42.632;23.198;2023-09-12T01:00:15;2.78;;;1.80;;
34505;SDS011;20748;42.632;23.198;2023-09-12T01:02:48;3.25;;;1.60;;
34505;SDS011;20748;42.632;23.198;2023-09-12T01:05:21;3.60;;;1.92;;
34505;SDS011;20748;42.632;23.198;2023-09-12T01:07:54;3.40;;;1.70;;
34505;SDS011;20748;42.632;23.198;2023-09-12T01:10:27;2.42;;;1.38;;
34505;SDS011;20748;42.632;23.198;2023-09-12T01:13:01;2.92;;;1.95;;
34505;SDS011;20748;42.632;23.198;2023-09-12T01:15:34;4.90;;;1.60;;
34505;SDS011;20748;42.632;23.198;2023-09-12T01:19:44;3.15;;;1.60;;
34505;SDS011;20748;42.632;23.198;2023-09-12T01:28:21;4.25;;;1.60;;
34505;SDS011;20748;42.632;23.198;2023-09-12T01:30:55;5.18;;;2.10;;
34505;SDS011;20748;42.632;23.198;2023-09-12T01:33:30;9.57;;;1.58;;
34505;SDS011;20748;42.632;23.198;2023-09-12T01:36:02;3.75;;;1.75;;
34505;SDS011;20748;42.632;23.198;2023-09-12T01:46:28;5.70;;;1.60;;
34505;SDS011;20748;42.632;23.198;2023-09-12T01:49:03;4.40;;;1.98;;
34505;SDS011;20748;42.632;23.198;2023-09-12T01:51:37;2.80;;;1.60;;
34505;SDS011;20748;42.632;23.198;2023-09-12T01:54:11;3.38;;;1.65;;
34505;SDS011;20748;42.632;23.198;2023-09-12T01:56:44;3.97;;;1.63;;
34505;SDS011;20748;42.632;23.198;2023-09-12T01:59:17;1.73;;;1.13;;
34505;SDS011;20748;42.632;23.198;2023-09-12T02:01:51;5.53;;;2.22;;
34505;SDS011;20748;42.632;23.198;2023-09-12T02:04:24;7.18;;;1.98;;
34505;SDS011;20748;42.632;23.198;2023-09-12T02:07:29;3.20;;;1.80;;
34505;SDS011;20748;42.632;23.198;2023-09-12T02:10:06;3.60;;;1.65;;
34505;SDS011;20748;42.632;23.198;2023-09-12T02:12:39;2.83;;;1.80;;
34505;SDS011;20748;42.632;23.198;2023-09-12T02:15:11;6.38;;;1.80;;
34505;SDS011;20748;42.632;23.198;2023-09-12T02:17:44;3.83;;;2.00;;
34505;SDS011;20748;42.632;23.198;2023-09-12T02:20:17;7.35;;;1.88;;
34505;SDS011;20748;42.632;23.198;2023-09-12T02:22:50;5.32;;;1.88;;
34505;SDS011;20748;42.632;23.198;2023-09-12T02:30:42;3.78;;;2.17;;
34505;SDS011;20748;42.632;23.198;2023-09-12T02:33:14;3.60;;;1.75;;
34505;SDS011;20748;42.632;23.198;2023-09-12T02:35:47;3.20;;;2.15;;
34505;SDS011;20748;42.632;23.198;2023-09-12T02:38:19;4.15;;;2.40;;
34505;SDS011;20748;42.632;23.198;2023-09-12T02:40:52;3.60;;;2.00;;
34505;SDS011;20748;42.632;23.198;2023-09-12T02:43:24;4.88;;;1.83;;
34505;SDS011;20748;42.632;23.198;2023-09-12T02:45:57;5.10;;;2.15;;
34505;SDS011;20748;42.632;23.198;2023-09-12T02:48:30;4.47;;;1.92;;
34505;SDS011;20748;42.632;23.198;2023-09-12T02:56:37;3.60;;;1.98;;
34505;SDS011;20748;42.632;23.198;2023-09-12T02:59:10;6.43;;;2.22;;
34505;SDS011;20748;42.632;23.198;2023-09-12T03:01:43;4.22;;;2.13;;
34505;SDS011;20748;42.632;23.198;2023-09-12T03:04:15;2.95;;;1.60;;
34505;SDS011;20748;42.632;23.198;2023-09-12T03:06:48;6.75;;;2.42;;
34505;SDS011;20748;42.632;23.198;2023-09-12T03:09:20;3.22;;;2.03;;
34505;SDS011;20748;42.632;23.198;2023-09-12T03:11:54;6.88;;;2.88;;
34505;SDS011;20748;42.632;23.198;2023-09-12T03:14:27;2.60;;;1.95;;
34505;SDS011;20748;42.632;23.198;2023-09-12T03:18:25;6.10;;;1.90;;
34505;SDS011;20748;42.632;23.198;2023-09-12T03:21:00;5.03;;;2.47;;
34505;SDS011;20748;42.632;23.198;2023-09-12T03:23:32;5.20;;;2.40;;
34505;SDS011;20748;42.632;23.198;2023-09-12T03:26:05;6.35;;;1.90;;
34505;SDS011;20748;42.632;23.198;2023-09-12T03:28:39;4.50;;;1.98;;
34505;SDS011;20748;42.632;23.198;2023-09-12T03:31:13;3.28;;;1.92;;
34505;SDS011;20748;42.632;23.198;2023-09-12T03:33:47;7.25;;;1.90;;
34505;SDS011;20748;42.632;23.198;2023-09-12T03:36:23;3.95;;;2.50;;
34505;SDS011;20748;42.632;23.198;2023-09-12T03:39:12;3.92;;;2.08;;
34505;SDS011;20748;42.632;23.198;2023-09-12T03:41:45;6.55;;;2.75;;
34505;SDS011;20748;42.632;23.198;2023-09-12T03:44:18;4.85;;;2.38;;
34505;SDS011;20748;42.632;23.198;2023-09-12T03:46:50;10.05;;;2.25;;
34505;SDS011;20748;42.632;23.198;2023-09-12T03:49:23;3.45;;;2.03;;
34505;SDS011;20748;42.632;23.198;2023-09-12T03:51:56;4.57;;;2.38;;
34505;SDS011;20748;42.632;23.198;2023-09-12T03:54:29;4.07;;;2.05;;
34505;SDS011;20748;42.632;23.198;2023-09-12T04:00:30;10.77;;;3.15;;
34505;SDS011;20748;42.632;23.198;2023-09-12T04:03:03;8.10;;;3.13;;
34505;SDS011;20748;42.632;23.198;2023-09-12T04:05:36;7.40;;;2.28;;
34505;SDS011;20748;42.632;23.198;2023-09-12T04:08:08;4.30;;;2.35;;
34505;SDS011;20748;42.632;23.198;2023-09-12T04:10:41;9.73;;;2.35;;
34505;SDS011;20748;42.632;23.198;2023-09-12T04:13:13;4.88;;;2.05;;
34505;SDS011;20748;42.632;23.198;2023-09-12T04:15:46;4.05;;;2.33;;
34505;SDS011;20748;42.632;23.198;2023-09-12T04:21:47;5.35;;;1.95;;
34505;SDS011;20748;42.632;23.198;2023-09-12T04:24:20;5.82;;;2.20;;
34505;SDS011;20748;42.632;23.198;2023-09-12T04:26:53;4.68;;;2.50;;
34505;SDS011;20748;42.632;23.198;2023-09-12T04:29:26;4.53;;;2.10;;
34505;SDS011;20748;42.632;23.198;2023-09-12T04:31:59;3.75;;;2.10;;
34505;SDS011;20748;42.632;23.198;2023-09-12T04:34:32;4.65;;;2.30;;
34505;SDS011;20748;42.632;23.198;2023-09-12T04:37:05;4.82;;;2.28;;
34505;SDS011;20748;42.632;23.198;2023-09-12T04:42:56;6.55;;;2.33;;
34505;SDS011;20748;42.632;23.198;2023-09-12T04:45:30;4.35;;;2.55;;
34505;SDS011;20748;42.632;23.198;2023-09-12T04:48:05;5.05;;;2.08;;
34505;SDS011;20748;42.632;23.198;2023-09-12T04:50:40;4.50;;;2.72;;
34505;SDS011;20748;42.632;23.198;2023-09-12T04:53:13;5.45;;;2.40;;
34505;SDS011;20748;42.632;23.198;2023-09-12T04:55:45;6.80;;;2.58;;
34505;SDS011;20748;42.632;23.198;2023-09-12T04:58:18;7.63;;;3.15;;
34505;SDS011;20748;42.632;23.198;2023-09-12T05:00:51;4.43;;;2.78;;
34505;SDS011;20748;42.632;23.198;2023-09-12T05:03:34;5.50;;;2.45;;
34505;SDS011;20748;42.632;23.198;2023-09-12T05:06:07;7.47;;;3.42;;
34505;SDS011;20748;42.632;23.198;2023-09-12T05:08:39;10.02;;;4.50;;
34505;SDS011;20748;42.632;23.198;2023-09-12T05:11:13;6.93;;;4.03;;
34505;SDS011;20748;42.632;23.198;2023-09-12T05:13:45;5.20;;;3.05;;
34505;SDS011;20748;42.632;23.198;2023-09-12T05:16:17;3.28;;;2.15;;
34505;SDS011;20748;42.632;23.198;2023-09-12T05:18:51;5.93;;;2.88;;
34505;SDS011;20748;42.632;23.198;2023-09-12T05:21:23;8.02;;;2.63;;
34505;SDS011;20748;42.632;23.198;2023-09-12T05:29:35;4.20;;;2.10;;
34505;SDS011;20748;42.632;23.198;2023-09-12T05:32:07;4.82;;;2.75;;
34505;SDS011;20748;42.632;23.198;2023-09-12T05:34:40;5.65;;;2.88;;
34505;SDS011;20748;42.632;23.198;2023-09-12T05:37:12;5.25;;;2.25;;
34505;SDS011;20748;42.632;23.198;2023-09-12T05:39:45;3.97;;;2.30;;
34505;SDS011;20748;42.632;23.198;2023-09-12T05:42:17;7.57;;;2.03;;
34505;SDS011;20748;42.632;23.198;2023-09-12T05:44:53;5.10;;;2.20;;
34505;SDS011;20748;42.632;23.198;2023-09-12T05:47:26;9.93;;;2.83;;
34505;SDS011;20748;42.632;23.198;2023-09-12T05:57:51;4.75;;;2.15;;
34505;SDS011;20748;42.632;23.198;2023-09-12T06:00:24;4.78;;;2.95;;
34505;SDS011;20748;42.632;23.198;2023-09-12T06:02:57;4.88;;;2.72;;
34505;SDS011;20748;42.632;23.198;2023-09-12T06:05:30;4.82;;;2.40;;
34505;SDS011;20748;42.632;23.198;2023-09-12T06:08:03;4.15;;;2.15;;
34505;SDS011;20748;42.632;23.198;2023-09-12T06:10:36;3.38;;;2.20;;
34505;SDS011;20748;42.632;23.198;2023-09-12T06:13:09;6.13;;;2.20;;
34505;SDS011;20748;42.632;23.198;2023-09-12T06:15:44;5.65;;;2.42;;
34505;SDS011;20748;42.632;23.198;2023-09-12T06:18:27;3.80;;;2.05;;
34505;SDS011;20748;42.632;23.198;2023-09-12T06:21:02;5.03;;;2.08;;
34505;SDS011;20748;42.632;23.198;2023-09-12T06:23:36;8.13;;;2.92;;
34505;SDS011;20748;42.632;23.198;2023-09-12T06:26:08;4.38;;;2.10;;
34505;SDS011;20748;42.632;23.198;2023-09-12T06:28:41;13.20;;;1.90;;
34505;SDS011;20748;42.632;23.198;2023-09-12T06:31:14;5.35;;;1.98;;
34505;SDS011;20748;42.632;23.198;2023-09-12T06:33:47;5.35;;;1.70;;
34505;SDS011;20748;42.632;23.198;2023-09-12T06:36:20;6.78;;;2.08;;
34505;SDS011;20748;42.632;23.198;2023-09-12T06:44:13;5.90;;;2.13;;
34505;SDS011;20748;42.632;23.198;2023-09-12T06:46:45;6.20;;;1.63;;
34505;SDS011;20748;42.632;23.198;2023-09-12T06:49:18;4.72;;;1.42;;
34505;SDS011;20748;42.632;23.198;2023-09-12T06:51:50;3.72;;;2.15;;
34505;SDS011;20748;42.632;23.198;2023-09-12T06:54:23;3.42;;;1.60;;
34505;SDS011;20748;42.632;23.198;2023-09-12T06:56:55;4.22;;;1.90;;
34505;SDS011;20748;42.632;23.198;2023-09-12T06:59:29;5.45;;;2.03;;
34505;SDS011;20748;42.632;23.198;2023-09-12T07:05:00;6.78;;;1.90;;
34505;SDS011;20748;42.632;23.198;2023-09-12T07:07:33;2.65;;;1.40;;
34505;SDS011;20748;42.632;23.198;2023-09-12T07:10:06;4.30;;;1.80;;
34505;SDS011;20748;42.632;23.198;2023-09-12T07:12:56;6.38;;;1.80;;
34505;SDS011;20748;42.632;23.198;2023-09-12T07:15:29;10.38;;;2.33;;
34505;SDS011;20748;42.632;23.198;2023-09-12T07:18:01;3.60;;;1.92;;
34505;SDS011;20748;42.632;23.198;2023-09-12T07:20:35;3.42;;;1.67;;
34505;SDS011;20748;42.632;23.198;2023-09-12T07:26:59;5.00;;;1.80;;
34505;SDS011;20748;42.632;23.198;2023-09-12T07:29:32;2.25;;;1.50;;
34505;SDS011;20748;42.632;23.198;2023-09-12T07:32:04;2.28;;;1.52;;
34505;SDS011;20748;42.632;23.198;2023-09-12T07:34:37;4.18;;;1.83;;
34505;SDS011;20748;42.632;23.198;2023-09-12T07:37:10;7.60;;;1.70;;
34505;SDS011;20748;42.632;23.198;2023-09-12T07:39:43;4.18;;;1.50;;
34505;SDS011;20748;42.632;23.198;2023-09-12T07:42:17;4.43;;;1.95;;
34505;SDS011;20748;42.632;23.198;2023-09-12T07:52:34;4.45;;;2.10;;
34505;SDS011;20748;42.632;23.198;2023-09-12T07:55:07;5.82;;;2.25;;
34505;SDS011;20748;42.632;23.198;2023-09-12T07:57:40;5.43;;;2.25;;
34505;SDS011;20748;42.632;23.198;2023-09-12T08:00:13;3.50;;;2.13;;
34505;SDS011;20748;42.632;23.198;2023-09-12T08:02:46;4.35;;;2.10;;
34505;SDS011;20748;42.632;23.198;2023-09-12T08:05:19;3.55;;;2.05;;
34505;SDS011;20748;42.632;23.198;2023-09-12T08:07:52;4.70;;;2.40;;
34505;SDS011;20748;42.632;23.198;2023-09-12T08:14:02;4.38;;;2.30;;
34505;SDS011;20748;42.632;23.198;2023-09-12T08:16:35;4.15;;;2.45;;
34505;SDS011;20748;42.632;23.198;2023-09-12T08:19:07;4.18;;;2.42;;
34505;SDS011;20748;42.632;23.198;2023-09-12T08:21:42;3.92;;;2.85;;
34505;SDS011;20748;42.632;23.198;2023-09-12T08:24:14;4.45;;;2.17;;
34505;SDS011;20748;42.632;23.198;2023-09-12T08:26:47;4.93;;;2.55;;
34505;SDS011;20748;42.632;23.198;2023-09-12T08:29:20;6.07;;;2.42;;
34505;SDS011;20748;42.632;23.198;2023-09-12T08:31:53;4.20;;;1.95;;
34505;SDS011;20748;42.632;23.198;2023-09-12T08:34:43;8.98;;;2.85;;
34505;SDS011;20748;42.632;23.198;2023-09-12T08:37:15;5.15;;;2.40;;
34505;SDS011;20748;42.632;23.198;2023-09-12T08:39:48;5.63;;;2.83;;
34505;SDS011;20748;42.632;23.198;2023-09-12T08:42:20;4.28;;;2.20;;
34505;SDS011;20748;42.632;23.198;2023-09-12T08:44:53;5.10;;;3.13;;
34505;SDS011;20748;42.632;23.198;2023-09-12T08:47:26;4.03;;;2.13;;
34505;SDS011;20748;42.632;23.198;2023-09-12T08:49:59;4.75;;;2.33;;
34505;SDS011;20748;42.632;23.198;2023-09-12T08:55:23;4.65;;;2.28;;
34505;SDS011;20748;42.632;23.198;2023-09-12T08:57:56;7.85;;;2.30;;
34505;SDS011;20748;42.632;23.198;2023-09-12T09:00:30;3.97;;;2.40;;
34505;SDS011;20748;42.632;23.198;2023-09-12T09:03:03;3.47;;;2.10;;
34505;SDS011;20748;42.632;23.198;2023-09-12T09:05:37;3.97;;;2.33;;
34505;SDS011;20748;42.632;23.198;2023-09-12T09:08:12;4.10;;;2.28;;
34505;SDS011;20748;42.632;23.198;2023-09-12T09:10:55;3.88;;;2.35;;
34505;SDS011;20748;42.632;23.198;2023-09-12T09:18:50;3.10;;;1.80;;
34505;SDS011;20748;42.632;23.198;2023-09-12T09:21:24;4.03;;;2.17;;
34505;SDS011;20748;42.632;23.198;2023-09-12T09:23:59;5.18;;;2.45;;
34505;SDS011;20748;42.632;23.198;2023-09-12T09:26:42;5.05;;;2.13;;
34505;SDS011;20748;42.632;23.198;2023-09-12T09:29:15;7.97;;;2.47;;
34505;SDS011;20748;42.632;23.198;2023-09-12T09:31:50;4.25;;;2.38;;
34505;SDS011;20748;42.632;23.198;2023-09-12T09:34:23;8.77;;;2.53;;
34505;SDS011;20748;42.632;23.198;2023-09-12T09:42:16;5.50;;;2.30;;
34505;SDS011;20748;42.632;23.198;2023-09-12T09:44:48;3.67;;;1.95;;
34505;SDS011;20748;42.632;23.198;2023-09-12T09:47:21;3.53;;;1.98;;
34505;SDS011;20748;42.632;23.198;2023-09-12T09:49:54;4.10;;;2.65;;
34505;SDS011;20748;42.632;23.198;2023-09-12T09:52:31;6.18;;;2.60;;
34505;SDS011;20748;42.632;23.198;2023-09-12T09:55:04;4.25;;;2.50;;
34505;SDS011;20748;42.632;23.198;2023-09-12T09:57:39;4.68;;;2.10;;
34505;SDS011;20748;42.632;23.198;2023-09-12T10:00:12;4.35;;;2.10;;
34505;SDS011;20748;42.632;23.198;2023-09-12T10:03:12;7.75;;;2.83;;
34505;SDS011;20748;42.632;23.198;2023-09-12T10:05:47;5.07;;;3.05;;
34505;SDS011;20748;42.632;23.198;2023-09-12T10:08:25;4.60;;;2.50;;
34505;SDS011;20748;42.632;23.198;2023-09-12T10:10:58;3.75;;;2.17;;
34505;SDS011;20748;42.632;23.198;2023-09-12T10:13:31;6.47;;;2.53;;
34505;SDS011;20748;42.632;23.198;2023-09-12T10:16:07;8.85;;;2.88;;
34505;SDS011;20748;42.632;23.198;2023-09-12T10:18:43;5.28;;;2.45;;
34505;SDS011;20748;42.632;23.198;2023-09-12T10:24:19;4.00;;;2.50;;
34505;SDS011;20748;42.632;23.198;2023-09-12T10:26:53;2.88;;;2.13;;
34505;SDS011;20748;42.632;23.198;2023-09-12T10:29:27;4.88;;;2.40;;
34505;SDS011;20748;42.632;23.198;2023-09-12T10:32:00;5.68;;;2.00;;
34505;SDS011;20748;42.632;23.198;2023-09-12T10:34:32;6.78;;;2.92;;
34505;SDS011;20748;42.632;23.198;2023-09-12T10:37:08;5.13;;;2.35;;
34505;SDS011;20748;42.632;23.198;2023-09-12T10:39:41;2.97;;;1.95;;
34505;SDS011;20748;42.632;23.198;2023-09-12T10:48:53;3.85;;;2.22;;
34505;SDS011;20748;42.632;23.198;2023-09-12T10:51:26;5.22;;;2.78;;
34505;SDS011;20748;42.632;23.198;2023-09-12T10:53:59;5.22;;;2.33;;
34505;SDS011;20748;42.632;23.198;2023-09-12T10:56:33;3.05;;;2.08;;
34505;SDS011;20748;42.632;23.198;2023-09-12T10:59:09;6.47;;;2.60;;
34505;SDS011;20748;42.632;23.198;2023-09-12T11:01:45;4.75;;;2.63;;
34505;SDS011;20748;42.632;23.198;2023-09-12T11:04:32;4.15;;;2.17;;
34505;SDS011;20748;42.632;23.198;2023-09-12T11:12:35;4.00;;;2.08;;
34505;SDS011;20748;42.632;23.198;2023-09-12T11:15:08;4.22;;;2.38;;
34505;SDS011;20748;42.632;23.198;2023-09-12T11:17:42;4.45;;;2.47;;
34505;SDS011;20748;42.632;23.198;2023-09-12T11:20:16;4.95;;;2.80;;
34505;SDS011;20748;42.632;23.198;2023-09-12T11:22:49;3.88;;;2.38;;
34505;SDS011;20748;42.632;23.198;2023-09-12T11:25:22;5.30;;;2.78;;
34505;SDS011;20748;42.632;23.198;2023-09-12T11:28:04;4.28;;;2.75;;
34505;SDS011;20748;42.632;23.198;2023-09-12T11:35:52;5.70;;;2.67;;
34505;SDS011;20748;42.632;23.198;2023-09-12T11:38:26;5.50;;;2.45;;
34505;SDS011;20748;42.632;23.198;2023-09-12T11:41:00;4.40;;;2.13;;
34505;SDS011;20748;42.632;23.198;2023-09-12T11:43:32;5.68;;;2.45;;
34505;SDS011;20748;42.632;23.198;2023-09-12T11:46:09;3.72;;;2.45;;
34505;SDS011;20748;42.632;23.198;2023-09-12T11:48:42;3.67;;;2.55;;
34505;SDS011;20748;42.632;23.198;2023-09-12T11:51:15;4.63;;;2.42;;
34505;SDS011;20748;42.632;23.198;2023-09-12T11:56:31;5.72;;;2.90;;
34505;SDS011;20748;42.632;23.198;2023-09-12T11:59:06;3.55;;;2.72;;
34505;SDS011;20748;42.632;23.198;2023-09-12T12:01:39;3.47;;;2.25;;
34505;SDS011;20748;42.632;23.198;2023-09-12T12:04:11;6.50;;;2.97;;
34505;SDS011;20748;42.632;23.198;2023-09-12T12:06:44;5.93;;;2.88;;
34505;SDS011;20748;42.632;23.198;2023-09-12T12:09:17;3.50;;;2.10;;
34505;SDS011;20748;42.632;23.198;2023-09-12T12:11:51;5.63;;;2.55;;
34505;SDS011;20748;42.632;23.198;2023-09-12T12:17:13;3.55;;;2.33;;
34505;SDS011;20748;42.632;23.198;2023-09-12T12:19:47;6.03;;;2.80;;
34505;SDS011;20748;42.632;23.198;2023-09-12T12:22:20;5.22;;;3.25;;
34505;SDS011;20748;42.632;23.198;2023-09-12T12:24:52;5.57;;;2.65;;
34505;SDS011;20748;42.632;23.198;2023-09-12T12:27:24;4.68;;;2.88;;
34505;SDS011;20748;42.632;23.198;2023-09-12T12:30:00;5.45;;;3.10;;
34505;SDS011;20748;42.632;23.198;2023-09-12T12:32:33;5.97;;;3.22;;
34505;SDS011;20748;42.632;23.198;2023-09-12T12:35:06;7.00;;;2.80;;
34505;SDS011;20748;42.632;23.198;2023-09-12T12:37:55;3.83;;;2.30;;
34505;SDS011;20748;42.632;23.198;2023-09-12T12:40:38;4.97;;;2.90;;
34505;SDS011;20748;42.632;23.198;2023-09-12T12:43:20;4.78;;;2.40;;
34505;SDS011;20748;42.632;23.198;2023-09-12T12:45:52;6.43;;;3.03;;
34505;SDS011;20748;42.632;23.198;2023-09-12T12:48:30;4.60;;;2.60;;
34505;SDS011;20748;42.632;23.198;2023-09-12T12:51:12;7.72;;;2.40;;
34505;SDS011;20748;42.632;23.198;2023-09-12T12:53:49;5.95;;;2.90;;
34505;SDS011;20748;42.632;23.198;2023-09-12T13:04:17;6.35;;;2.55;;
34505;SDS011;20748;42.632;23.198;2023-09-12T13:06:50;4.68;;;2.20;;
34505;SDS011;20748;42.632;23.198;2023-09-12T13:09:22;5.55;;;3.78;;
34505;SDS011;20748;42.632;23.198;2023-09-12T13:11:54;4.22;;;2.47;;
34505;SDS011;20748;42.632;23.198;2023-09-12T13:14:27;9.05;;;3.55;;
34505;SDS011;20748;42.632;23.198;2023-09-12T13:17:02;4.95;;;2.47;;
34505;SDS011;20748;42.632;23.198;2023-09-12T13:22:33;7.32;;;2.47;;
34505;SDS011;20748;42.632;23.198;2023-09-12T13:25:06;5.55;;;3.08;;
34505;SDS011;20748;42.632;23.198;2023-09-12T13:27:39;8.00;;;3.08;;
34505;SDS011;20748;42.632;23.198;2023-09-12T13:30:12;3.20;;;2.38;;
34505;SDS011;20748;42.632;23.198;2023-09-12T13:32:44;3.97;;;2.63;;
34505;SDS011;20748;42.632;23.198;2023-09-12T13:35:17;5.30;;;2.30;;
34505;SDS011;20748;42.632;23.198;2023-09-12T13:37:50;4.18;;;2.40;;
34505;SDS011;20748;42.632;23.198;2023-09-12T13:49:46;6.82;;;2.38;;
34505;SDS011;20748;42.632;23.198;2023-09-12T13:52:19;7.63;;;2.38;;
34505;SDS011;20748;42.632;23.198;2023-09-12T13:54:51;6.47;;;2.63;;
34505;SDS011;20748;42.632;23.198;2023-09-12T13:57:24;5.95;;;2.17;;
34505;SDS011;20748;42.632;23.198;2023-09-12T13:59:56;9.63;;;3.70;;
34505;SDS011;20748;42.632;23.198;2023-09-12T14:02:29;5.15;;;2.63;;
34505;SDS011;20748;42.632;23.198;2023-09-12T14:05:03;6.93;;;3.20;;
34505;SDS011;20748;42.632;23.198;2023-09-12T14:10:33;5.20;;;2.78;;
34505;SDS011;20748;42.632;23.198;2023-09-12T14:13:09;5.10;;;2.42;;
34505;SDS011;20748;42.632;23.198;2023-09-12T14:15:53;7.07;;;2.03;;
34505;SDS011;20748;42.632;23.198;2023-09-12T14:18:27;4.68;;;3.10;;
34505;SDS011;20748;42.632;23.198;2023-09-12T14:21:01;4.47;;;2.80;;
34505;SDS011;20748;42.632;23.198;2023-09-12T14:23:36;8.73;;;2.63;;
34505;SDS011;20748;42.632;23.198;2023-09-12T14:26:09;4.43;;;2.45;;
34505;SDS011;20748;42.632;23.198;2023-09-12T14:32:35;4.50;;;2.45;;
34505;SDS011;20748;42.632;23.198;2023-09-12T14:35:09;4.93;;;2.45;;
34505;SDS011;20748;42.632;23.198;2023-09-12T14:37:41;4.35;;;3.35;;
34505;SDS011;20748;42.632;23.198;2023-09-12T14:40:14;8.50;;;5.05;;
34505;SDS011;20748;42.632;23.198;2023-09-12T14:42:48;4.32;;;2.80;;
34505;SDS011;20748;42.632;23.198;2023-09-12T14:45:21;6.55;;;2.65;;
34505;SDS011;20748;42.632;23.198;2023-09-12T14:47:55;5.32;;;2.83;;
34505;SDS011;20748;42.632;23.198;2023-09-12T14:57:00;4.22;;;2.38;;
34505;SDS011;20748;42.632;23.198;2023-09-12T14:59:33;5.68;;;2.55;;
34505;SDS011;20748;42.632;23.198;2023-09-12T15:02:05;6.85;;;3.17;;
34505;SDS011;20748;42.632;23.198;2023-09-12T15:04:38;4.53;;;2.20;;
34505;SDS011;20748;42.632;23.198;2023-09-12T15:07:10;4.80;;;2.70;;
34505;SDS011;20748;42.632;23.198;2023-09-12T15:09:43;3.50;;;2.30;;
34505;SDS011;20748;42.632;23.198;2023-09-12T15:18:14;5.45;;;2.80;;
34505;SDS011;20748;42.632;23.198;2023-09-12T15:20:47;11.65;;;2.80;;
34505;SDS011;20748;42.632;23.198;2023-09-12T15:23:20;6.00;;;2.70;;
34505;SDS011;20748;42.632;23.198;2023-09-12T15:25:54;4.65;;;2.70;;
34505;SDS011;20748;42.632;23.198;2023-09-12T15:28:26;6.00;;;2.53;;
34505;SDS011;20748;42.632;23.198;2023-09-12T15:30:59;9.10;;;3.00;;
34505;SDS011;20748;42.632;23.198;2023-09-12T15:33:35;6.85;;;2.60;;
34505;SDS011;20748;42.632;23.198;2023-09-12T15:41:28;5.47;;;2.70;;
34505;SDS011;20748;42.632;23.198;2023-09-12T15:44:01;6.03;;;2.67;;
34505;SDS011;20748;42.632;23.198;2023-09-12T15:46:47;4.07;;;2.40;;
34505;SDS011;20748;42.632;23.198;2023-09-12T15:49:20;8.82;;;3.00;;
34505;SDS011;20748;42.632;23.198;2023-09-12T15:51:53;7.15;;;2.47;;
34505;SDS011;20748;42.632;23.198;2023-09-12T15:54:25;7.30;;;2.60;;
34505;SDS011;20748;42.632;23.198;2023-09-12T15:56:59;8.38;;;2.67;;
34505;SDS011;20748;42.632;23.198;2023-09-12T16:02:24;8.55;;;3.20;;
34505;SDS011;20748;42.632;23.198;2023-09-12T16:04:56;5.65;;;2.83;;
34505;SDS011;20748;42.632;23.198;2023-09-12T16:07:29;10.07;;;2.97;;
34505;SDS011;20748;42.632;23.198;2023-09-12T16:10:01;5.97;;;2.65;;
34505;SDS011;20748;42.632;23.198;2023-09-12T16:12:34;4.88;;;2.92;;
34505;SDS011;20748;42.632;23.198;2023-09-12T16:15:07;6.70;;;2.50;;
34505;SDS011;20748;42.632;23.198;2023-09-12T16:17:41;5.40;;;2.33;;
34505;SDS011;20748;42.632;23.198;2023-09-12T16:20:15;6.00;;;2.88;;
34505;SDS011;20748;42.632;23.198;2023-09-12T16:28:37;6.63;;;2.42;;
34505;SDS011;20748;42.632;23.198;2023-09-12T16:31:09;4.07;;;2.67;;
34505;SDS011;20748;42.632;23.198;2023-09-12T16:33:42;8.25;;;3.33;;
34505;SDS011;20748;42.632;23.198;2023-09-12T16:36:15;9.02;;;3.10;;
34505;SDS011;20748;42.632;23.198;2023-09-12T16:38:47;10.80;;;3.75;;
34505;SDS011;20748;42.632;23.198;2023-09-12T16:41:20;7.13;;;3.67;;
34505;SDS011;20748;42.632;23.198;2023-09-12T16:43:53;5.78;;;3.67;;
34505;SDS011;20748;42.632;23.198;2023-09-12T16:51:40;4.50;;;3.22;;
34505;SDS011;20748;42.632;23.198;2023-09-12T16:54:13;9.68;;;3.20;;
34505;SDS011;20748;42.632;23.198;2023-09-12T16:56:45;5.55;;;2.88;;
34505;SDS011;20748;42.632;23.198;2023-09-12T16:59:18;8.52;;;2.83;;
34505;SDS011;20748;42.632;23.198;2023-09-12T17:01:50;8.43;;;2.65;;
34505;SDS011;20748;42.632;23.198;2023-09-12T17:04:23;4.60;;;2.70;;
34505;SDS011;20748;42.632;23.198;2023-09-12T17:06:56;2.72;;;2.10;;
34505;SDS011;20748;42.632;23.198;2023-09-12T17:12:17;4.93;;;2.38;;
34505;SDS011;20748;42.632;23.198;2023-09-12T17:14:50;9.48;;;2.25;;
34505;SDS011;20748;42.632;23.198;2023-09-12T17:17:22;6.90;;;2.60;;
34505;SDS011;20748;42.632;23.198;2023-09-12T17:19:55;5.00;;;2.25;;
34505;SDS011;20748;42.632;23.198;2023-09-12T17:22:28;4.60;;;2.72;;
34505;SDS011;20748;42.632;23.198;2023-09-12T17:30:21;7.68;;;2.72;;
34505;SDS011;20748;42.632;23.198;2023-09-12T17:32:55;8.70;;;3.40;;
34505;SDS011;20748;42.632;23.198;2023-09-12T17:35:31;5.80;;;3.00;;
34505;SDS011;20748;42.632;23.198;2023-09-12T17:38:05;8.48;;;3.30;;
34505;SDS011;20748;42.632;23.198;2023-09-12T17:40:39;5.53;;;2.80;;
34505;SDS011;20748;42.632;23.198;2023-09-12T17:43:13;4.97;;;3.30;;
34505;SDS011;20748;42.632;23.198;2023-09-12T17:45:48;8.85;;;4.03;;
34505;SDS011;20748;42.632;23.198;2023-09-12T17:48:41;7.70;;;3.60;;
34505;SDS011;20748;42.632;23.198;2023-09-12T17:51:15;7.72;;;4.30;;
34505;SDS011;20748;42.632;23.198;2023-09-12T17:53:49;12.45;;;3.85;;
34505;SDS011;20748;42.632;23.198;2023-09-12T17:56:24;8.68;;;4.50;;
34505;SDS011;20748;42.632;23.198;2023-09-12T17:58:58;9.20;;;5.38;;
34505;SDS011;20748;42.632;23.198;2023-09-12T18:01:33;14.20;;;7.20;;
34505;SDS011;20748;42.632;23.198;2023-09-12T18:04:07;24.60;;;12.02;;
34505;SDS011;20748;42.632;23.198;2023-09-12T18:06:41;14.35;;;8.50;;
34505;SDS011;20748;42.632;23.198;2023-09-12T18:09:15;19.38;;;9.10;;
34505;SDS011;20748;42.632;23.198;2023-09-12T18:11:48;18.75;;;9.77;;
34505;SDS011;20748;42.632;23.198;2023-09-12T18:14:22;19.17;;;9.10;;
34505;SDS011;20748;42.632;23.198;2023-09-12T18:16:58;12.10;;;6.90;;
34505;SDS011;20748;42.632;23.198;2023-09-12T18:19:33;16.58;;;7.53;;
34505;SDS011;20748;42.632;23.198;2023-09-12T18:22:07;10.57;;;5.78;;
34505;SDS011;20748;42.632;23.198;2023-09-12T18:24:41;15.27;;;6.85;;